createdAt,value
2022-08-26T00:01:55.725Z,75.69
2022-08-26T00:04:24.923Z,75.91
2022-08-26T00:06:52.882Z,75.82
2022-08-26T00:09:21.182Z,75.79
2022-08-26T00:11:47.649Z,75.98
2022-08-26T00:14:15.189Z,76.08
2022-08-26T00:16:48.057Z,76.07
2022-08-26T00:19:22.214Z,76.24
2022-08-26T00:21:49.642Z,76.15
2022-08-26T00:24:18.424Z,76.35
2022-08-26T00:26:45.010Z,76.35
2022-08-26T00:29:14.841Z,76.47
2022-08-26T00:31:42.292Z,76.39
2022-08-26T00:34:11.242Z,76.14
2022-08-26T00:36:39.657Z,75.88
2022-08-26T00:39:07.472Z,75.91
2022-08-26T00:41:37.336Z,75.78
2022-08-26T00:44:04.275Z,75.93
2022-08-26T00:46:35.485Z,75.81
2022-08-26T00:49:13.536Z,75.33
2022-08-26T00:51:46.913Z,75.27
2022-08-26T00:54:14.993Z,75.60
2022-08-26T00:56:59.908Z,75.24
2022-08-26T00:59:28.824Z,75.58
2022-08-26T01:01:57.291Z,75.43
2022-08-26T01:04:26.134Z,75.32
2022-08-26T01:06:54.532Z,75.15
2022-08-26T01:09:24.133Z,75.11
2022-08-26T01:11:55.642Z,75.32
2022-08-26T01:14:29.434Z,75.45
2022-08-26T01:16:55.966Z,75.63
2022-08-26T01:19:28.552Z,76.22
2022-08-26T01:22:02.424Z,76.58
2022-08-26T01:24:30.718Z,76.67
2022-08-26T01:27:05.238Z,76.88
2022-08-26T01:29:35.122Z,76.78
2022-08-26T01:32:03.627Z,76.59
2022-08-26T01:34:36.750Z,76.01
2022-08-26T01:37:16.237Z,75.90
2022-08-26T01:39:45.096Z,75.97
2022-08-26T01:42:14.549Z,75.53
2022-08-26T01:44:49.174Z,75.55
2022-08-26T01:47:17.309Z,75.18
2022-08-26T01:49:47.864Z,75.00
2022-08-26T01:52:24.042Z,75.68
2022-08-26T01:54:57.217Z,75.81
2022-08-26T01:57:25.905Z,75.91
2022-08-26T01:59:56.228Z,75.58
2022-08-26T02:02:24.438Z,75.69
2022-08-26T02:04:58.231Z,75.51
2022-08-26T02:07:31.718Z,76.03
2022-08-26T02:10:00.025Z,76.08
2022-08-26T02:12:27.314Z,76.14
2022-08-26T02:14:57.401Z,76.20
2022-08-26T02:17:34.699Z,76.08
2022-08-26T02:20:02.413Z,75.97
2022-08-26T02:22:31.792Z,75.99
2022-08-26T02:25:06.748Z,75.96
2022-08-26T02:27:35.391Z,75.82
2022-08-26T02:30:24.119Z,75.88
2022-08-26T02:32:53.117Z,76.25
2022-08-26T02:35:29.275Z,76.00
2022-08-26T02:37:57.458Z,76.23
2022-08-26T02:40:28.147Z,76.12
2022-08-26T02:42:55.983Z,76.19
2022-08-26T02:45:24.575Z,76.07
2022-08-26T02:47:51.876Z,76.15
2022-08-26T02:50:19.399Z,76.46
2022-08-26T02:52:51.658Z,76.68
2022-08-26T02:55:18.222Z,76.75
2022-08-26T02:57:44.956Z,76.76
2022-08-26T03:00:14.952Z,77.08
2022-08-26T03:02:41.542Z,76.92
2022-08-26T03:05:08.451Z,76.98
2022-08-26T03:07:34.833Z,77.06
2022-08-26T03:10:01.373Z,77.06
2022-08-26T03:12:35.486Z,77.02
2022-08-26T03:15:01.941Z,76.72
2022-08-26T03:17:32.333Z,76.61
2022-08-26T03:20:02.642Z,76.62
2022-08-26T03:22:29.001Z,76.52
2022-08-26T03:24:55.347Z,76.76
2022-08-26T03:27:21.808Z,76.89
2022-08-26T03:30:06.682Z,77.26
2022-08-26T03:32:33.486Z,77.26
2022-08-26T03:34:59.861Z,77.42
2022-08-26T03:37:26.421Z,77.32
2022-08-26T03:39:53.727Z,77.23
2022-08-26T03:42:21.518Z,77.06
2022-08-26T03:44:51.441Z,77.17
2022-08-26T03:47:18.246Z,77.24
2022-08-26T03:49:49.348Z,77.13
2022-08-26T03:52:18.297Z,77.11
2022-08-26T03:54:44.770Z,76.91
2022-08-26T03:57:13.578Z,77.13
2022-08-26T03:59:47.260Z,77.06
2022-08-26T04:02:17.316Z,77.06
2022-08-26T04:04:44.474Z,76.59
2022-08-26T04:07:13.150Z,76.84
2022-08-26T04:09:42.438Z,76.79
2022-08-26T04:12:09.729Z,76.76
2022-08-26T04:14:37.832Z,77.01
2022-08-26T04:17:05.988Z,76.89
2022-08-26T04:19:32.798Z,77.00
2022-08-26T04:21:59.949Z,77.17
2022-08-26T04:24:27.893Z,77.26
2022-08-26T04:26:56.243Z,77.24
2022-08-26T04:29:25.288Z,77.60
2022-08-26T04:31:55.365Z,77.51
2022-08-26T04:34:28.659Z,77.34
2022-08-26T04:36:56.012Z,77.38
2022-08-26T04:39:22.583Z,77.48
2022-08-26T04:41:50.842Z,77.54
2022-08-26T04:44:17.391Z,77.63
2022-08-26T04:46:44.192Z,77.59
2022-08-26T04:49:11.244Z,77.76
2022-08-26T04:51:38.612Z,77.64
2022-08-26T04:54:06.931Z,77.80
2022-08-26T04:56:36.928Z,77.91
2022-08-26T04:59:06.117Z,77.92
2022-08-26T05:01:39.582Z,77.96
2022-08-26T05:04:08.214Z,77.72
2022-08-26T05:06:37.059Z,77.80
2022-08-26T05:09:03.919Z,77.83
2022-08-26T05:11:30.472Z,78.05
2022-08-26T05:14:01.653Z,77.89
2022-08-26T05:16:30.291Z,78.03
2022-08-26T05:18:57.442Z,77.68
2022-08-26T05:21:27.123Z,77.88
2022-08-26T05:23:56.816Z,77.71
2022-08-26T05:26:27.751Z,77.93
2022-08-26T05:28:56.408Z,77.56
2022-08-26T05:31:29.713Z,77.76
2022-08-26T05:33:57.606Z,78.05
2022-08-26T05:36:27.230Z,77.74
2022-08-26T05:38:56.411Z,77.56
2022-08-26T05:41:36.325Z,77.30
2022-08-26T05:44:07.482Z,77.07
2022-08-26T05:46:35.825Z,76.91
2022-08-26T05:49:12.680Z,77.16
2022-08-26T05:51:41.498Z,76.95
2022-08-26T05:54:08.309Z,76.71
2022-08-26T05:56:37.888Z,76.75
2022-08-26T05:59:04.627Z,76.88
2022-08-26T06:01:31.153Z,76.93
2022-08-26T06:04:02.475Z,76.93
2022-08-26T06:06:32.244Z,76.98
2022-08-26T06:09:01.283Z,77.05
2022-08-26T06:11:29.625Z,76.59
2022-08-26T06:14:07.233Z,76.46
2022-08-26T06:16:41.316Z,76.40
2022-08-26T06:19:11.755Z,76.61
2022-08-26T06:21:41.736Z,76.33
2022-08-26T06:24:33.008Z,76.21
2022-08-26T06:27:04.853Z,76.02
2022-08-26T06:29:34.856Z,75.62
2022-08-26T06:32:05.878Z,75.67
2022-08-26T06:34:33.803Z,75.28
2022-08-26T06:37:02.726Z,75.09
2022-08-26T06:39:31.419Z,74.79
2022-08-26T06:42:02.936Z,74.17
2022-08-26T06:44:29.622Z,73.98
2022-08-26T06:46:56.127Z,74.08
2022-08-26T06:49:27.447Z,73.88
2022-08-26T06:51:57.928Z,73.82
2022-08-26T06:54:24.729Z,73.68
2022-08-26T06:56:51.542Z,73.86
2022-08-26T06:59:18.008Z,73.73
2022-08-26T07:01:45.434Z,73.57
2022-08-26T07:04:15.695Z,73.71
2022-08-26T07:06:48.866Z,73.69
2022-08-26T07:09:16.856Z,73.15
2022-08-26T07:11:48.146Z,73.12
2022-08-26T07:14:21.568Z,73.52
2022-08-26T07:16:50.352Z,73.45
2022-08-26T07:19:31.172Z,73.25
2022-08-26T07:22:25.591Z,73.47
2022-08-26T07:24:51.965Z,73.28
2022-08-26T07:27:18.750Z,73.21
2022-08-26T07:29:45.213Z,73.26
2022-08-26T07:32:15.439Z,73.45
2022-08-26T07:34:43.100Z,73.22
2022-08-26T07:37:11.562Z,73.18
2022-08-26T07:39:40.424Z,72.91
2022-08-26T07:42:09.011Z,72.48
2022-08-26T07:44:37.274Z,72.44
2022-08-26T07:47:03.904Z,72.06
2022-08-26T07:49:38.000Z,72.33
2022-08-26T07:52:06.069Z,71.96
2022-08-26T07:54:32.874Z,72.17
2022-08-26T07:56:59.461Z,72.12
2022-08-26T07:59:26.176Z,72.19
2022-08-26T08:01:52.787Z,72.39
2022-08-26T08:04:26.144Z,72.46
2022-08-26T08:06:53.761Z,72.38
2022-08-26T08:09:20.179Z,72.35
2022-08-26T08:11:49.829Z,72.32
2022-08-26T08:14:18.226Z,72.33
2022-08-26T08:16:48.634Z,72.18
2022-08-26T08:19:20.016Z,71.73
2022-08-26T08:21:49.513Z,72.03
2022-08-26T08:24:16.148Z,72.11
2022-08-26T08:26:42.570Z,72.15
2022-08-26T08:29:09.309Z,72.01
2022-08-26T08:31:57.006Z,71.83
2022-08-26T08:34:24.343Z,70.67
2022-08-26T08:36:53.450Z,70.66
2022-08-26T08:39:20.665Z,70.23
2022-08-26T08:42:04.195Z,69.55
2022-08-26T08:44:31.249Z,69.67
2022-08-26T08:47:06.298Z,69.48
2022-08-26T08:49:33.709Z,69.80
2022-08-26T08:52:06.714Z,69.56
2022-08-26T08:54:33.863Z,69.60
2022-08-26T08:57:15.796Z,69.77
2022-08-26T08:59:58.586Z,69.96
2022-08-26T09:02:42.962Z,69.50
2022-08-26T09:05:22.466Z,69.60
2022-08-26T09:07:54.965Z,69.62
2022-08-26T09:10:21.410Z,68.74
2022-08-26T09:12:50.982Z,68.40
2022-08-26T09:15:26.368Z,67.63
2022-08-26T09:18:40.254Z,67.70
2022-08-26T09:21:10.217Z,67.38
2022-08-26T09:23:41.866Z,67.04
2022-08-26T09:26:24.789Z,67.17
2022-08-26T09:29:08.897Z,66.63
2022-08-26T09:31:39.358Z,66.19
2022-08-26T09:34:17.983Z,65.77
2022-08-26T09:36:55.151Z,65.43
2022-08-26T09:39:27.678Z,65.53
2022-08-26T09:42:22.410Z,65.48
2022-08-26T09:45:05.074Z,65.12
2022-08-26T09:47:40.491Z,65.19
2022-08-26T09:50:20.038Z,64.52
2022-08-26T09:52:46.872Z,64.60
2022-08-26T09:55:23.005Z,64.54
2022-08-26T09:57:52.177Z,64.41
2022-08-26T10:00:25.459Z,64.40
2022-08-26T10:02:54.752Z,64.10
2022-08-26T10:05:40.205Z,64.49
2022-08-26T10:08:28.019Z,64.49
2022-08-26T10:10:57.862Z,64.48
2022-08-26T10:13:31.475Z,65.01
2022-08-26T10:16:01.266Z,67.84
2022-08-26T10:18:39.869Z,68.64
2022-08-26T10:21:20.865Z,69.20
2022-08-26T10:23:53.872Z,69.51
2022-08-26T10:26:35.163Z,69.69
2022-08-26T10:29:12.379Z,69.38
2022-08-26T10:31:51.453Z,69.66
2022-08-26T10:34:21.246Z,68.93
2022-08-26T10:37:15.590Z,68.77
2022-08-26T10:40:04.003Z,68.69
2022-08-26T10:42:54.083Z,68.39
2022-08-26T10:45:25.641Z,69.22
2022-08-26T10:48:12.020Z,69.32
2022-08-26T10:50:48.347Z,68.57
2022-08-26T10:53:56.207Z,68.26
2022-08-26T10:56:46.590Z,67.65
2022-08-26T10:59:36.723Z,66.60
2022-08-26T11:02:35.649Z,65.47
2022-08-26T11:05:15.312Z,64.65
2022-08-26T11:07:46.791Z,63.54
2022-08-26T11:10:16.210Z,63.69
2022-08-26T11:12:42.558Z,63.76
2022-08-26T11:15:19.462Z,63.86
2022-08-26T11:17:51.132Z,64.36
2022-08-26T11:20:30.015Z,63.92
2022-08-26T11:23:36.632Z,63.28
2022-08-26T11:26:08.910Z,63.47
2022-08-26T11:28:50.505Z,63.36
2022-08-26T11:31:26.086Z,63.04
2022-08-26T11:34:10.779Z,63.34
2022-08-26T11:36:51.691Z,62.93
2022-08-26T11:39:26.039Z,62.92
2022-08-26T11:41:55.595Z,63.15
2022-08-26T11:44:37.730Z,63.06
2022-08-26T11:47:05.478Z,62.95
2022-08-26T11:49:38.576Z,62.81
2022-08-26T11:52:22.208Z,62.34
2022-08-26T11:55:01.487Z,62.54
2022-08-26T11:57:29.242Z,62.58
2022-08-26T11:59:56.638Z,62.20
2022-08-26T12:02:23.568Z,61.43
2022-08-26T12:04:52.259Z,61.49
2022-08-26T12:07:25.992Z,61.39
2022-08-26T12:10:00.314Z,61.53
2022-08-26T12:12:36.131Z,61.45
2022-08-26T12:15:17.806Z,61.85
2022-08-26T12:17:49.411Z,61.68
2022-08-26T12:20:48.366Z,61.44
2022-08-26T12:23:43.805Z,60.53
2022-08-26T12:26:31.960Z,60.56
2022-08-26T12:29:27.632Z,60.12
2022-08-26T12:32:17.378Z,59.50
2022-08-26T12:34:47.084Z,59.71
2022-08-26T12:37:15.057Z,59.64
2022-08-26T12:39:43.219Z,59.42
2022-08-26T12:42:18.889Z,59.21
2022-08-26T12:45:04.295Z,59.16
2022-08-26T12:47:43.084Z,58.93
2022-08-26T12:50:18.748Z,59.28
2022-08-26T12:53:07.277Z,59.63
2022-08-26T12:55:43.646Z,58.81
2022-08-26T12:58:16.180Z,58.94
2022-08-26T13:00:50.474Z,58.81
2022-08-26T13:03:34.344Z,58.84
2022-08-26T13:06:17.926Z,58.57
2022-08-26T13:08:55.942Z,58.73
2022-08-26T13:11:39.270Z,57.83
2022-08-26T13:14:23.907Z,57.92
2022-08-26T13:16:59.410Z,56.97
2022-08-26T13:19:26.418Z,56.84
2022-08-26T13:21:57.889Z,56.77
2022-08-26T13:24:35.000Z,57.13
2022-08-26T13:27:06.655Z,57.26
2022-08-26T13:29:33.681Z,57.99
2022-08-26T13:32:04.633Z,57.68
2022-08-26T13:34:31.329Z,57.62
2022-08-26T13:36:59.236Z,57.76
2022-08-26T13:39:26.144Z,57.59
2022-08-26T13:41:52.861Z,57.70
2022-08-26T13:44:19.743Z,57.43
2022-08-26T13:46:46.249Z,57.21
2022-08-26T13:49:13.345Z,56.64
2022-08-26T13:51:43.664Z,57.20
2022-08-26T13:54:10.049Z,57.63
2022-08-26T13:56:37.336Z,58.36
2022-08-26T13:59:04.657Z,59.02
2022-08-26T14:01:32.289Z,59.20
2022-08-26T14:03:59.448Z,59.17
2022-08-26T14:06:26.039Z,59.71
2022-08-26T14:08:52.492Z,59.71
2022-08-26T14:11:21.316Z,59.44
2022-08-26T14:13:47.727Z,59.52
2022-08-26T14:16:33.052Z,60.17
2022-08-26T14:19:02.091Z,59.78
2022-08-26T14:21:31.132Z,59.91
2022-08-26T14:24:00.798Z,59.40
2022-08-26T14:26:29.775Z,59.43
2022-08-26T14:28:58.710Z,59.29
2022-08-26T14:31:26.990Z,59.91
2022-08-26T14:33:54.823Z,59.60
2022-08-26T14:36:31.949Z,59.47
2022-08-26T14:39:10.992Z,59.35
2022-08-26T14:41:55.022Z,58.51
2022-08-26T14:44:25.819Z,58.73
2022-08-26T14:46:53.427Z,58.79
2022-08-26T14:49:21.954Z,58.89
2022-08-26T14:51:50.720Z,58.73
2022-08-26T14:54:18.637Z,58.34
2022-08-26T14:56:54.732Z,58.09
2022-08-26T14:59:27.229Z,57.99
2022-08-26T15:02:03.843Z,58.06
2022-08-26T15:04:30.503Z,58.40
2022-08-26T15:06:59.475Z,58.55
2022-08-26T15:09:27.984Z,57.97
2022-08-26T15:11:54.949Z,58.23
2022-08-26T15:14:22.364Z,57.30
2022-08-26T15:16:50.974Z,57.63
2022-08-26T15:19:18.955Z,57.31
2022-08-26T15:21:46.941Z,57.10
2022-08-26T15:24:15.257Z,57.43
2022-08-26T15:26:43.118Z,57.12
2022-08-26T15:29:09.655Z,57.01
2022-08-26T15:31:36.635Z,57.10
2022-08-26T15:34:14.606Z,56.71
2022-08-26T15:36:45.749Z,56.10
2022-08-26T15:39:13.841Z,55.85
2022-08-26T15:41:40.512Z,55.72
2022-08-26T15:44:07.992Z,55.85
2022-08-26T15:46:35.092Z,55.36
2022-08-26T15:49:03.631Z,55.70
2022-08-26T15:51:34.085Z,55.29
2022-08-26T15:54:03.422Z,54.90
2022-08-26T15:56:34.621Z,54.10
2022-08-26T15:59:03.107Z,53.86
2022-08-26T16:01:37.370Z,54.12
2022-08-26T16:04:05.213Z,54.40
2022-08-26T16:06:34.441Z,54.27
2022-08-26T16:09:01.061Z,53.31
2022-08-26T16:11:28.340Z,53.68
2022-08-26T16:13:55.310Z,53.66
2022-08-26T16:16:22.028Z,53.09
2022-08-26T16:18:48.499Z,52.72
2022-08-26T16:21:22.210Z,52.84
2022-08-26T16:23:48.826Z,52.71
2022-08-26T16:26:22.480Z,52.59
2022-08-26T16:28:52.407Z,52.86
2022-08-26T16:31:18.966Z,52.66
2022-08-26T16:33:46.158Z,52.92
2022-08-26T16:36:13.912Z,52.71
2022-08-26T16:38:41.309Z,52.32
2022-08-26T16:41:08.454Z,52.33
2022-08-26T16:43:35.423Z,52.07
2022-08-26T16:46:02.039Z,52.00
2022-08-26T16:48:28.703Z,52.08
2022-08-26T16:50:55.401Z,51.79
2022-08-26T16:53:25.110Z,51.93
2022-08-26T16:55:51.947Z,51.65
2022-08-26T16:58:21.971Z,52.06
2022-08-26T17:00:48.884Z,51.49
2022-08-26T17:03:15.731Z,51.41
2022-08-26T17:05:42.150Z,51.04
2022-08-26T17:08:08.803Z,51.46
2022-08-26T17:10:35.354Z,51.42
2022-08-26T17:13:01.827Z,51.06
2022-08-26T17:15:28.304Z,51.63
2022-08-26T17:17:56.036Z,51.63
2022-08-26T17:20:24.708Z,51.79
2022-08-26T17:22:52.994Z,51.80
2022-08-26T17:25:25.905Z,51.90
2022-08-26T17:27:52.978Z,52.28
2022-08-26T17:30:20.969Z,51.74
2022-08-26T17:32:47.878Z,52.27
2022-08-26T17:35:15.595Z,51.77
2022-08-26T17:37:42.783Z,51.69
2022-08-26T17:40:12.401Z,51.31
2022-08-26T17:42:39.858Z,51.21
2022-08-26T17:45:08.039Z,51.05
2022-08-26T17:47:34.863Z,51.10
2022-08-26T17:50:01.949Z,51.38
2022-08-26T17:52:29.199Z,51.07
2022-08-26T17:54:58.910Z,51.13
2022-08-26T17:57:25.933Z,51.30
2022-08-26T17:59:53.869Z,50.98
2022-08-26T18:02:21.492Z,51.05
2022-08-26T18:04:48.720Z,50.49
2022-08-26T18:07:15.986Z,50.96
2022-08-26T18:09:43.156Z,50.65
2022-08-26T18:12:09.895Z,49.94
2022-08-26T18:14:36.463Z,50.09
2022-08-26T18:17:03.020Z,50.52
2022-08-26T18:19:33.500Z,50.33
2022-08-26T18:22:01.782Z,50.60
2022-08-26T18:24:30.369Z,50.49
2022-08-26T18:26:57.064Z,50.12
2022-08-26T18:29:25.363Z,50.43
2022-08-26T18:31:52.216Z,50.62
2022-08-26T18:34:19.666Z,50.76
2022-08-26T18:36:46.800Z,50.92
2022-08-26T18:39:14.682Z,50.56
2022-08-26T18:41:44.635Z,50.45
2022-08-26T18:44:13.966Z,50.68
2022-08-26T18:46:41.216Z,50.75
2022-08-26T18:49:08.299Z,51.21
2022-08-26T18:51:35.481Z,51.16
2022-08-26T18:54:05.188Z,51.41
2022-08-26T18:56:33.153Z,51.56
2022-08-26T18:59:00.494Z,51.85
2022-08-26T19:01:28.440Z,51.84
2022-08-26T19:03:57.242Z,51.80
2022-08-26T19:06:24.915Z,51.70
2022-08-26T19:08:51.459Z,51.52
2022-08-26T19:11:32.217Z,51.30
2022-08-26T19:13:59.975Z,51.40
2022-08-26T19:16:27.391Z,51.51
2022-08-26T19:18:55.023Z,51.44
2022-08-26T19:21:22.625Z,51.53
2022-08-26T19:23:49.511Z,51.67
2022-08-26T19:26:16.113Z,51.53
2022-08-26T19:28:45.245Z,51.68
2022-08-26T19:31:11.973Z,51.85
2022-08-26T19:33:41.638Z,52.14
2022-08-26T19:36:14.805Z,52.13
2022-08-26T19:38:42.703Z,52.32
2022-08-26T19:41:18.224Z,52.46
2022-08-26T19:43:46.282Z,52.45
2022-08-26T19:46:17.968Z,52.73
2022-08-26T19:48:44.701Z,52.85
2022-08-26T19:51:15.854Z,53.02
2022-08-26T19:53:43.949Z,53.26
2022-08-26T19:56:11.484Z,53.44
2022-08-26T19:58:38.353Z,53.68
2022-08-26T20:01:06.204Z,53.44
2022-08-26T20:03:34.126Z,53.67
2022-08-26T20:06:02.916Z,54.10
2022-08-26T20:08:29.412Z,54.12
2022-08-26T20:10:58.444Z,54.25
2022-08-26T20:13:24.945Z,54.40
2022-08-26T20:15:51.659Z,54.66
2022-08-26T20:18:36.390Z,54.74
2022-08-26T20:21:21.362Z,54.70
2022-08-26T20:23:47.865Z,55.04
2022-08-26T20:26:14.390Z,55.05
2022-08-26T20:28:40.910Z,55.31
2022-08-26T20:31:07.407Z,55.41
2022-08-26T20:33:46.354Z,55.55
2022-08-26T20:36:14.905Z,55.68
2022-08-26T20:38:41.343Z,55.68
2022-08-26T20:41:08.216Z,55.95
2022-08-26T20:43:35.471Z,56.05
2022-08-26T20:46:02.223Z,56.20
2022-08-26T20:48:28.809Z,56.26
2022-08-26T20:50:59.388Z,56.38
2022-08-26T20:53:33.899Z,56.30
2022-08-26T20:56:06.348Z,56.18
2022-08-26T20:58:33.424Z,56.45
2022-08-26T21:01:04.026Z,56.61
2022-08-26T21:03:33.859Z,56.75
2022-08-26T21:06:00.547Z,56.93
2022-08-26T21:08:27.155Z,57.02
2022-08-26T21:10:53.739Z,57.13
2022-08-26T21:13:20.399Z,57.27
2022-08-26T21:15:46.937Z,57.58
2022-08-26T21:18:13.379Z,57.90
2022-08-26T21:20:39.770Z,58.25
2022-08-26T21:23:06.243Z,58.64
2022-08-26T21:25:32.798Z,58.76
2022-08-26T21:27:59.368Z,59.08
2022-08-26T21:30:25.770Z,59.30
2022-08-26T21:32:52.254Z,59.62
2022-08-26T21:35:18.765Z,59.89
2022-08-26T21:37:45.214Z,60.25
2022-08-26T21:40:12.097Z,60.63
2022-08-26T21:42:38.864Z,60.87
2022-08-26T21:45:06.886Z,61.03
2022-08-26T21:47:33.532Z,61.17
2022-08-26T21:50:13.904Z,61.28
2022-08-26T21:52:40.324Z,61.34
2022-08-26T21:55:08.926Z,61.42
2022-08-26T21:57:36.430Z,61.46
2022-08-26T22:00:05.306Z,61.40
2022-08-26T22:02:32.563Z,61.46
2022-08-26T22:04:59.057Z,61.64
2022-08-26T22:07:25.448Z,61.62
2022-08-26T22:09:51.821Z,61.59
2022-08-26T22:12:18.926Z,61.57
2022-08-26T22:14:45.635Z,61.48
2022-08-26T22:17:12.397Z,61.83
2022-08-26T22:19:39.170Z,61.69
2022-08-26T22:22:14.683Z,61.69
2022-08-26T22:24:43.200Z,61.54
2022-08-26T22:27:11.821Z,61.93
2022-08-26T22:29:38.457Z,62.17
2022-08-26T22:32:05.147Z,61.89
2022-08-26T22:34:32.537Z,62.06
2022-08-26T22:36:59.591Z,62.22
2022-08-26T22:39:26.560Z,62.06
2022-08-26T22:41:54.049Z,62.15
2022-08-26T22:44:23.511Z,62.16
2022-08-26T22:46:54.330Z,62.06
2022-08-26T22:49:21.315Z,62.07
2022-08-26T22:51:47.772Z,62.02
2022-08-26T22:54:15.094Z,61.94
2022-08-26T22:56:41.655Z,61.85
2022-08-26T22:59:08.606Z,61.94
2022-08-26T23:01:38.004Z,61.81
2022-08-26T23:04:06.255Z,62.07
2022-08-26T23:06:36.100Z,62.31
2022-08-26T23:09:02.607Z,62.34
2022-08-26T23:11:28.966Z,62.51
2022-08-26T23:13:55.461Z,62.57
2022-08-26T23:16:21.892Z,62.50
2022-08-26T23:18:48.329Z,62.65
2022-08-26T23:21:17.978Z,62.62
2022-08-26T23:23:45.326Z,62.62
2022-08-26T23:26:15.498Z,62.60
2022-08-26T23:28:43.882Z,62.77
2022-08-26T23:31:10.381Z,62.78
2022-08-26T23:33:55.451Z,62.87
2022-08-26T23:36:22.872Z,62.92
2022-08-26T23:38:52.435Z,62.96
2022-08-26T23:41:20.118Z,63.04
2022-08-26T23:43:46.489Z,62.94
2022-08-26T23:46:12.955Z,62.63
2022-08-26T23:48:42.361Z,62.62
2022-08-26T23:51:28.874Z,62.64
2022-08-26T23:53:55.342Z,62.44
2022-08-26T23:56:21.853Z,62.38
2022-08-26T23:58:51.385Z,62.23
